Time;durP1;ratioP1;P1;durP2;ratioP2;P2;SDS_P1;SDS_P2;PMS_P1;PMS_P2;Temp;Humidity;BMP_temperature;BMP_pressure;BME280_temperature;BME280_humidity;BME280_pressure;Samples;Min_cycle;Max_cycle;Signal;HPM_P1;HPM_P2
2021/05/27 00:02:07;;;;;;;2.33;1.50;;;;;;;;;;1735958;82;20891;-64
2021/05/27 00:04:32;;;;;;;2.65;1.60;;;;;;;;;;1735659;82;20994;-64
2021/05/27 00:07:00;;;;;;;2.65;1.65;;;;;;;;;;1733048;82;20998;-65
2021/05/27 00:09:27;;;;;;;3.67;1.87;;;;;;;;;;1735804;82;21125;-65
2021/05/27 00:11:54;;;;;;;3.05;1.60;;;;;;;;;;1735728;82;21022;-65
2021/05/27 00:14:21;;;;;;;2.90;2.00;;;;;;;;;;1735838;82;21022;-65
2021/05/27 00:16:47;;;;;;;5.00;1.95;;;;;;;;;;1718351;82;21001;-65
2021/05/27 00:19:13;;;;;;;2.45;1.65;;;;;;;;;;1710814;83;21583;-65
2021/05/27 00:21:40;;;;;;;1.52;1.37;;;;;;;;;;1722422;83;21112;-64
2021/05/27 00:24:07;;;;;;;1.67;1.40;;;;;;;;;;1719235;83;21006;-65
2021/05/27 00:26:34;;;;;;;3.17;1.82;;;;;;;;;;1720411;83;21054;-65
2021/05/27 00:29:00;;;;;;;2.20;1.40;;;;;;;;;;1710346;83;20907;-65
2021/05/27 00:31:27;;;;;;;3.17;1.35;;;;;;;;;;1722463;83;21011;-65
2021/05/27 00:33:53;;;;;;;3.17;1.92;;;;;;;;;;1719751;83;21861;-64
2021/05/27 00:36:19;;;;;;;2.72;1.60;;;;;;;;;;1720950;83;20986;-64
2021/05/27 00:38:46;;;;;;;3.12;1.62;;;;;;;;;;1701050;83;21539;-65
2021/05/27 00:41:12;;;;;;;2.08;1.62;;;;;;;;;;1719438;83;21521;-65
2021/05/27 00:43:38;;;;;;;1.87;1.77;;;;;;;;;;1725045;83;20939;-64
2021/05/27 00:46:04;;;;;;;2.62;1.75;;;;;;;;;;1723705;83;21037;-64
2021/05/27 00:51:15;;;;;;;1.52;1.42;;;;;;;;;;1722786;83;21054;-64
2021/05/27 00:53:41;;;;;;;2.35;1.82;;;;;;;;;;1724462;83;20974;-64
2021/05/27 00:56:08;;;;;;;2.12;1.50;;;;;;;;;;1725043;83;21491;-63
2021/05/27 00:58:35;;;;;;;2.35;1.62;;;;;;;;;;1706544;83;21856;-63
2021/05/27 01:01:02;;;;;;;2.33;1.85;;;;;;;;;;1678964;84;21075;-63
2021/05/27 01:03:28;;;;;;;4.65;2.10;;;;;;;;;;1698266;83;21099;-63
2021/05/27 01:05:54;;;;;;;5.65;2.95;;;;;;;;;;1697922;83;21467;-64
2021/05/27 01:08:20;;;;;;;2.60;1.25;;;;;;;;;;1701121;83;20973;-63
2021/05/27 01:10:50;;;;;;;2.45;1.55;;;;;;;;;;1697830;83;21629;-64
2021/05/27 01:13:21;;;;;;;1.80;1.70;;;;;;;;;;1699162;83;21629;-64
2021/05/27 01:15:48;;;;;;;2.22;1.60;;;;;;;;;;1697982;83;20996;-64
2021/05/27 01:18:15;;;;;;;3.42;2.00;;;;;;;;;;1691372;83;20994;-64
2021/05/27 01:20:44;;;;;;;1.87;1.40;;;;;;;;;;1706585;83;21012;-64
2021/05/27 01:23:11;;;;;;;2.83;1.85;;;;;;;;;;1687466;83;21120;-64
2021/05/27 01:25:42;;;;;;;3.72;1.95;;;;;;;;;;1688592;83;21740;-64
2021/05/27 01:28:08;;;;;;;2.37;1.82;;;;;;;;;;1689314;83;21555;-64
2021/05/27 01:30:35;;;;;;;5.00;1.80;;;;;;;;;;1688536;83;20971;-63
2021/05/27 01:33:01;;;;;;;2.12;1.67;;;;;;;;;;1687505;83;20898;-64
2021/05/27 01:35:27;;;;;;;3.70;1.80;;;;;;;;;;1688621;83;21661;-63
2021/05/27 01:37:55;;;;;;;3.70;1.92;;;;;;;;;;1689240;83;21606;-64
2021/05/27 01:40:23;;;;;;;5.35;1.80;;;;;;;;;;1687575;83;21070;-64
2021/05/27 01:42:49;;;;;;;2.17;1.67;;;;;;;;;;1706305;83;20956;-64
2021/05/27 01:45:17;;;;;;;4.20;2.30;;;;;;;;;;1687408;83;21017;-64
2021/05/27 01:47:43;;;;;;;2.72;1.90;;;;;;;;;;1693359;83;21091;-64
2021/05/27 01:50:20;;;;;;;2.27;1.87;;;;;;;;;;1709046;83;20932;-64
2021/05/27 01:52:41;;;;;;;2.58;2.17;;;;;;;;;;1709287;83;20912;-64
2021/05/27 01:55:09;;;;;;;4.20;2.15;;;;;;;;;;1714867;83;21678;-64
2021/05/27 01:57:35;;;;;;;2.52;1.90;;;;;;;;;;1702214;83;21106;-65
2021/05/27 02:00:05;;;;;;;3.08;2.35;;;;;;;;;;1691142;83;20961;-64
2021/05/27 02:02:33;;;;;;;2.65;2.10;;;;;;;;;;1673755;83;20947;-64
2021/05/27 02:04:59;;;;;;;4.00;2.87;;;;;;;;;;1693086;83;21029;-65
2021/05/27 02:07:28;;;;;;;2.85;2.22;;;;;;;;;;1671942;83;21591;-65
2021/05/27 02:09:54;;;;;;;3.27;2.20;;;;;;;;;;1711525;83;20852;-65
2021/05/27 02:12:23;;;;;;;3.55;2.12;;;;;;;;;;1705184;83;21665;-64
2021/05/27 02:14:50;;;;;;;2.50;2.27;;;;;;;;;;1692461;83;21036;-64
2021/05/27 02:17:16;;;;;;;2.45;2.00;;;;;;;;;;1704606;83;20968;-64
2021/05/27 02:19:44;;;;;;;4.62;1.90;;;;;;;;;;1707261;82;20957;-65
2021/05/27 02:22:10;;;;;;;3.87;2.05;;;;;;;;;;1729321;82;21612;-65
2021/05/27 02:24:45;;;;;;;1.98;1.87;;;;;;;;;;1721012;81;21108;-65
2021/05/27 02:27:12;;;;;;;2.77;2.10;;;;;;;;;;1728385;82;22517;-65
2021/05/27 02:29:38;;;;;;;2.87;2.10;;;;;;;;;;1728460;82;20957;-65
2021/05/27 02:32:06;;;;;;;3.00;2.25;;;;;;;;;;1714140;82;20946;-65
2021/05/27 02:34:33;;;;;;;2.52;2.25;;;;;;;;;;1723159;82;20902;-66
2021/05/27 02:37:00;;;;;;;4.25;2.25;;;;;;;;;;1720537;82;22228;-65
2021/05/27 02:39:28;;;;;;;3.52;2.45;;;;;;;;;;1735317;81;20859;-65
2021/05/27 02:41:55;;;;;;;3.67;2.42;;;;;;;;;;1717264;81;20965;-65
2021/05/27 02:44:23;;;;;;;2.80;2.00;;;;;;;;;;1715588;81;20923;-65
2021/05/27 02:46:53;;;;;;;5.30;2.98;;;;;;;;;;1728983;82;21544;-65
2021/05/27 02:49:20;;;;;;;3.50;2.33;;;;;;;;;;1729158;82;21077;-64
2021/05/27 02:51:47;;;;;;;3.50;2.42;;;;;;;;;;1729640;82;21872;-66
2021/05/27 02:54:14;;;;;;;2.70;2.50;;;;;;;;;;1731051;82;21587;-63
2021/05/27 02:56:43;;;;;;;4.62;2.65;;;;;;;;;;1730268;81;21582;-64
2021/05/27 02:59:11;;;;;;;5.33;2.47;;;;;;;;;;1731877;82;21074;-64
2021/05/27 03:01:40;;;;;;;3.25;2.52;;;;;;;;;;1730629;81;21568;-65
2021/05/27 03:04:06;;;;;;;2.58;2.35;;;;;;;;;;1729873;82;21006;-64
2021/05/27 03:06:33;;;;;;;2.55;2.35;;;;;;;;;;1730738;82;21480;-67
2021/05/27 03:09:00;;;;;;;2.50;2.30;;;;;;;;;;1730901;82;20947;-68
2021/05/27 03:11:26;;;;;;;3.52;2.87;;;;;;;;;;1714053;82;21577;-65
2021/05/27 03:13:54;;;;;;;5.17;2.75;;;;;;;;;;1725852;81;21210;-69
2021/05/27 03:16:23;;;;;;;2.45;2.25;;;;;;;;;;1700902;82;20978;-68
2021/05/27 03:18:51;;;;;;;3.62;2.15;;;;;;;;;;1730721;82;20978;-63
2021/05/27 03:21:17;;;;;;;5.60;2.60;;;;;;;;;;1731365;82;20950;-64
2021/05/27 03:23:44;;;;;;;2.45;2.02;;;;;;;;;;1729007;82;20954;-64
2021/05/27 03:26:12;;;;;;;2.17;1.98;;;;;;;;;;1731249;82;21663;-63
2021/05/27 03:28:40;;;;;;;2.90;2.10;;;;;;;;;;1730930;82;21140;-64
2021/05/27 03:31:08;;;;;;;3.27;2.40;;;;;;;;;;1714317;82;21542;-63
2021/05/27 03:33:36;;;;;;;2.77;2.20;;;;;;;;;;1730538;82;21447;-64
2021/05/27 03:36:05;;;;;;;3.27;2.40;;;;;;;;;;1733012;81;21473;-64
2021/05/27 03:38:33;;;;;;;3.25;2.12;;;;;;;;;;1731205;82;21111;-63
2021/05/27 03:40:59;;;;;;;3.17;2.20;;;;;;;;;;1731854;82;21056;-63
2021/05/27 03:43:26;;;;;;;4.35;2.40;;;;;;;;;;1724635;82;20855;-63
2021/05/27 03:45:53;;;;;;;3.72;2.50;;;;;;;;;;1715876;81;21453;-63
2021/05/27 03:48:20;;;;;;;3.08;2.42;;;;;;;;;;1695434;84;21045;-63
2021/05/27 03:50:47;;;;;;;2.30;2.10;;;;;;;;;;1723374;82;21647;-64
2021/05/27 03:53:15;;;;;;;3.60;2.75;;;;;;;;;;1730977;82;20919;-63
2021/05/27 03:55:43;;;;;;;3.12;2.08;;;;;;;;;;1731029;82;21619;-64
2021/05/27 04:00:56;;;;;;;2.47;2.22;;;;;;;;;;1714767;82;20958;-64
2021/05/27 04:03:27;;;;;;;3.70;2.15;;;;;;;;;;1703329;82;21648;-66
2021/05/27 04:08:39;;;;;;;2.45;2.22;;;;;;;;;;1720081;82;21529;-64
2021/05/27 04:11:05;;;;;;;2.27;1.98;;;;;;;;;;1720391;82;20986;-65
2021/05/27 04:13:33;;;;;;;3.90;2.15;;;;;;;;;;1726338;82;20895;-62
2021/05/27 04:15:59;;;;;;;4.33;2.50;;;;;;;;;;1732820;82;21122;-63
2021/05/27 04:18:25;;;;;;;2.83;2.62;;;;;;;;;;1730356;82;21036;-63
2021/05/27 04:20:54;;;;;;;3.08;2.40;;;;;;;;;;1711187;82;20899;-63
2021/05/27 04:23:36;;;;;;;4.20;1.50;;;;;;;;;;1724547;81;20950;-64
2021/05/27 04:26:11;;;;;;;2.55;2.35;;;;;;;;;;1725685;82;20899;-62
2021/05/27 04:28:37;;;;;;;2.35;1.95;;;;;;;;;;1722321;82;21140;-61
2021/05/27 04:31:10;;;;;;;2.70;2.27;;;;;;;;;;1732869;81;20973;-59
2021/05/27 04:33:47;;;;;;;3.60;2.20;;;;;;;;;;1727753;82;21508;-60
2021/05/27 04:36:14;;;;;;;2.92;2.17;;;;;;;;;;1732533;81;21814;-61
2021/05/27 04:38:41;;;;;;;2.05;1.90;;;;;;;;;;1733804;82;21586;-60
2021/05/27 04:41:08;;;;;;;2.83;2.58;;;;;;;;;;1674167;84;21049;-59
2021/05/27 04:43:35;;;;;;;2.58;2.00;;;;;;;;;;1687383;84;20928;-59
2021/05/27 04:46:02;;;;;;;3.20;1.98;;;;;;;;;;1668737;84;20988;-59
2021/05/27 04:48:30;;;;;;;2.87;2.08;;;;;;;;;;1730659;82;20990;-58
2021/05/27 04:50:56;;;;;;;4.55;2.60;;;;;;;;;;1732938;81;21503;-64
2021/05/27 04:53:24;;;;;;;3.65;2.20;;;;;;;;;;1723932;82;21766;-60
2021/05/27 04:55:50;;;;;;;4.37;2.17;;;;;;;;;;1732210;82;21013;-55
2021/05/27 04:58:17;;;;;;;2.95;2.70;;;;;;;;;;1731827;82;20931;-59
2021/05/27 05:00:44;;;;;;;4.95;2.67;;;;;;;;;;1731773;82;21022;-55
2021/05/27 05:03:10;;;;;;;3.42;2.55;;;;;;;;;;1731908;82;21441;-62
2021/05/27 05:05:38;;;;;;;3.25;2.15;;;;;;;;;;1732311;82;21161;-56
2021/05/27 05:08:06;;;;;;;3.40;2.83;;;;;;;;;;1713229;82;21608;-56
2021/05/27 05:10:33;;;;;;;3.20;2.10;;;;;;;;;;1731939;81;20972;-61
2021/05/27 05:12:59;;;;;;;3.25;2.40;;;;;;;;;;1728644;82;21098;-57
2021/05/27 05:15:28;;;;;;;4.97;2.75;;;;;;;;;;1724865;82;21002;-58
2021/05/27 05:17:59;;;;;;;5.95;2.17;;;;;;;;;;1718241;82;21054;-63
2021/05/27 05:20:27;;;;;;;6.10;2.20;;;;;;;;;;1729974;81;21023;-58
2021/05/27 05:22:55;;;;;;;4.15;2.42;;;;;;;;;;1732707;82;20975;-58
2021/05/27 05:25:22;;;;;;;3.52;2.80;;;;;;;;;;1727774;82;21002;-57
2021/05/27 05:27:50;;;;;;;4.92;2.60;;;;;;;;;;1715211;82;20978;-57
2021/05/27 05:30:17;;;;;;;4.00;2.30;;;;;;;;;;1732966;81;21911;-58
2021/05/27 05:32:43;;;;;;;2.87;2.42;;;;;;;;;;1730082;82;20967;-58
2021/05/27 05:35:11;;;;;;;3.08;2.77;;;;;;;;;;1732781;82;20970;-57
2021/05/27 05:37:37;;;;;;;6.85;3.00;;;;;;;;;;1719059;82;21188;-57
2021/05/27 05:40:05;;;;;;;6.03;3.35;;;;;;;;;;1719250;82;20932;-57
2021/05/27 05:42:31;;;;;;;7.60;3.12;;;;;;;;;;1723213;81;21064;-57
2021/05/27 05:44:57;;;;;;;5.15;2.92;;;;;;;;;;1731030;82;21021;-55
2021/05/27 05:47:24;;;;;;;4.97;2.58;;;;;;;;;;1727368;81;20843;-56
2021/05/27 05:49:50;;;;;;;3.22;2.90;;;;;;;;;;1731203;82;20927;-56
2021/05/27 05:52:17;;;;;;;9.50;3.42;;;;;;;;;;1732555;82;21568;-54
2021/05/27 05:54:43;;;;;;;6.83;2.58;;;;;;;;;;1732593;82;21094;-57
2021/05/27 05:57:09;;;;;;;2.60;2.40;;;;;;;;;;1728521;82;21033;-57
2021/05/27 05:59:36;;;;;;;6.95;3.15;;;;;;;;;;1732639;82;20934;-55
2021/05/27 06:02:05;;;;;;;4.10;2.50;;;;;;;;;;1732768;81;21603;-55
2021/05/27 06:04:32;;;;;;;4.20;2.65;;;;;;;;;;1729582;81;20983;-52
2021/05/27 06:07:00;;;;;;;3.25;2.35;;;;;;;;;;1731363;82;21088;-56
2021/05/27 06:09:27;;;;;;;3.83;2.90;;;;;;;;;;1732813;81;21089;-53
2021/05/27 06:11:54;;;;;;;4.05;2.87;;;;;;;;;;1729394;82;21003;-55
2021/05/27 06:14:20;;;;;;;3.30;2.40;;;;;;;;;;1732865;81;20907;-56
2021/05/27 06:16:48;;;;;;;4.35;2.40;;;;;;;;;;1730920;82;20935;-56
2021/05/27 06:19:15;;;;;;;4.55;2.50;;;;;;;;;;1732764;82;21092;-53
2021/05/27 06:21:43;;;;;;;5.53;2.85;;;;;;;;;;1730219;82;20978;-55
2021/05/27 06:24:15;;;;;;;3.92;2.75;;;;;;;;;;1730599;82;21026;-54
2021/05/27 06:26:41;;;;;;;6.28;2.52;;;;;;;;;;1731277;82;20903;-58
2021/05/27 06:29:07;;;;;;;5.62;2.75;;;;;;;;;;1729027;81;21027;-57
2021/05/27 06:31:35;;;;;;;3.22;2.70;;;;;;;;;;1732528;82;21053;-54
2021/05/27 06:34:03;;;;;;;7.53;3.15;;;;;;;;;;1732580;82;20983;-56
2021/05/27 06:36:31;;;;;;;7.40;2.95;;;;;;;;;;1718989;82;20992;-56
2021/05/27 06:38:58;;;;;;;4.58;3.10;;;;;;;;;;1728062;82;21623;-56
2021/05/27 06:41:24;;;;;;;3.72;3.00;;;;;;;;;;1732870;82;20895;-55
2021/05/27 06:43:50;;;;;;;3.65;2.83;;;;;;;;;;1685464;82;21635;-55
2021/05/27 06:46:18;;;;;;;3.12;2.83;;;;;;;;;;1726313;81;21083;-58
2021/05/27 06:48:44;;;;;;;4.67;2.92;;;;;;;;;;1721130;82;21556;-56
2021/05/27 06:51:10;;;;;;;4.92;3.50;;;;;;;;;;1728578;82;21045;-54
2021/05/27 06:53:37;;;;;;;5.80;3.85;;;;;;;;;;1732242;82;21509;-58
2021/05/27 06:56:04;;;;;;;5.67;3.20;;;;;;;;;;1731611;82;21403;-56
2021/05/27 06:58:30;;;;;;;6.87;3.85;;;;;;;;;;1729439;81;20993;-58
2021/05/27 07:00:56;;;;;;;3.67;3.10;;;;;;;;;;1732678;81;20922;-58
2021/05/27 07:03:22;;;;;;;7.53;3.60;;;;;;;;;;1732197;82;21054;-58
2021/05/27 07:05:48;;;;;;;4.40;3.00;;;;;;;;;;1731955;82;21069;-57
2021/05/27 07:08:15;;;;;;;2.87;2.67;;;;;;;;;;1732169;82;21134;-55
2021/05/27 07:10:41;;;;;;;3.98;3.65;;;;;;;;;;1732074;82;20974;-55
2021/05/27 07:13:08;;;;;;;5.10;3.45;;;;;;;;;;1731930;82;21606;-55
2021/05/27 07:15:35;;;;;;;4.85;3.60;;;;;;;;;;1732123;82;21006;-57
2021/05/27 07:18:01;;;;;;;3.70;3.33;;;;;;;;;;1732127;82;21043;-54
2021/05/27 07:20:27;;;;;;;3.85;3.35;;;;;;;;;;1732063;82;21070;-55
2021/05/27 07:22:55;;;;;;;7.15;4.08;;;;;;;;;;1732142;82;21070;-56
2021/05/27 07:25:23;;;;;;;4.03;3.25;;;;;;;;;;1731191;82;21619;-55
2021/05/27 07:27:51;;;;;;;5.08;3.20;;;;;;;;;;1732108;82;21575;-56
2021/05/27 07:30:19;;;;;;;4.83;3.80;;;;;;;;;;1732041;82;21572;-56
2021/05/27 07:32:46;;;;;;;4.03;3.47;;;;;;;;;;1732107;82;21027;-56
2021/05/27 07:35:12;;;;;;;6.17;3.60;;;;;;;;;;1732149;82;20999;-54
2021/05/27 07:37:39;;;;;;;5.58;3.65;;;;;;;;;;1731036;82;20942;-55
2021/05/27 07:40:07;;;;;;;7.42;3.60;;;;;;;;;;1731508;82;21591;-55
2021/05/27 07:42:34;;;;;;;3.65;3.35;;;;;;;;;;1727112;82;21127;-55
2021/05/27 07:45:00;;;;;;;4.70;3.92;;;;;;;;;;1731943;82;21019;-55
2021/05/27 07:47:29;;;;;;;5.20;3.72;;;;;;;;;;1728290;82;20987;-55
2021/05/27 07:49:56;;;;;;;3.90;3.60;;;;;;;;;;1728278;81;20994;-56
2021/05/27 07:52:22;;;;;;;6.47;3.70;;;;;;;;;;1732878;82;20932;-54
2021/05/27 07:54:52;;;;;;;6.90;3.80;;;;;;;;;;1732247;82;20959;-55
2021/05/27 07:57:20;;;;;;;5.50;3.80;;;;;;;;;;1736510;82;20938;-56
2021/05/27 07:59:46;;;;;;;5.10;3.83;;;;;;;;;;1737496;82;21037;-56
2021/05/27 08:02:12;;;;;;;3.70;3.33;;;;;;;;;;1730368;82;21389;-55
2021/05/27 08:04:42;;;;;;;3.98;3.62;;;;;;;;;;1730202;82;21072;-54
2021/05/27 08:07:10;;;;;;;4.83;3.98;;;;;;;;;;1737568;82;20974;-55
2021/05/27 08:09:37;;;;;;;4.47;3.70;;;;;;;;;;1717676;81;38997;-55
2021/05/27 08:12:05;;;;;;;3.62;3.33;;;;;;;;;;1700652;84;21073;-55
2021/05/27 08:14:32;;;;;;;4.12;3.72;;;;;;;;;;1723257;82;21519;-54
2021/05/27 08:16:58;;;;;;;4.62;3.75;;;;;;;;;;1737484;82;20982;-55
2021/05/27 08:19:24;;;;;;;4.55;4.15;;;;;;;;;;1737573;82;20946;-55
2021/05/27 08:21:52;;;;;;;4.30;3.80;;;;;;;;;;1737472;82;21906;-55
2021/05/27 08:24:18;;;;;;;4.58;4.08;;;;;;;;;;1737424;82;20974;-55
2021/05/27 08:26:45;;;;;;;6.05;3.52;;;;;;;;;;1736573;82;20926;-55
2021/05/27 08:29:11;;;;;;;4.22;3.80;;;;;;;;;;1729798;82;20955;-55
2021/05/27 08:31:39;;;;;;;4.90;3.60;;;;;;;;;;1732647;82;21539;-55
2021/05/27 08:34:07;;;;;;;4.15;3.45;;;;;;;;;;1732565;82;21884;-56
2021/05/27 08:36:34;;;;;;;9.53;2.90;;;;;;;;;;1732018;82;20975;-54
2021/05/27 08:39:00;;;;;;;3.15;2.80;;;;;;;;;;1732608;82;21531;-55
2021/05/27 08:41:26;;;;;;;3.02;2.83;;;;;;;;;;1732801;82;20954;-55
2021/05/27 08:43:53;;;;;;;2.98;2.77;;;;;;;;;;1732864;82;21460;-55
2021/05/27 08:46:21;;;;;;;3.58;2.83;;;;;;;;;;1732738;82;21071;-56
2021/05/27 08:48:48;;;;;;;2.55;2.30;;;;;;;;;;1732724;82;21010;-55
2021/05/27 08:51:14;;;;;;;2.50;2.30;;;;;;;;;;1732834;82;20887;-55
2021/05/27 08:53:40;;;;;;;2.33;2.15;;;;;;;;;;1732555;82;20967;-54
2021/05/27 08:56:06;;;;;;;3.22;2.00;;;;;;;;;;1732825;82;20946;-54
2021/05/27 08:58:32;;;;;;;4.00;2.87;;;;;;;;;;1732681;82;21873;-55
2021/05/27 09:00:59;;;;;;;3.92;2.08;;;;;;;;;;1732740;82;21006;-55
2021/05/27 09:03:41;;;;;;;3.92;2.30;;;;;;;;;;1732782;82;20966;-55
2021/05/27 09:06:09;;;;;;;2.58;1.70;;;;;;;;;;1730560;82;21657;-55
2021/05/27 09:08:38;;;;;;;2.30;2.10;;;;;;;;;;1732232;82;20871;-56
2021/05/27 09:11:09;;;;;;;3.15;1.95;;;;;;;;;;1730663;82;20926;-55
2021/05/27 09:13:36;;;;;;;2.27;2.08;;;;;;;;;;1736178;82;20855;-54
2021/05/27 09:16:06;;;;;;;3.58;2.00;;;;;;;;;;1737416;82;20890;-54
2021/05/27 09:18:33;;;;;;;2.95;2.12;;;;;;;;;;1737399;82;20962;-55
2021/05/27 09:21:02;;;;;;;5.55;2.20;;;;;;;;;;1723164;82;20995;-55
2021/05/27 09:23:28;;;;;;;2.77;2.20;;;;;;;;;;1704763;82;21076;-55
2021/05/27 09:26:12;;;;;;;4.05;2.00;;;;;;;;;;1714052;82;21507;-56
2021/05/27 09:28:40;;;;;;;2.10;1.90;;;;;;;;;;1734260;82;21074;-55
2021/05/27 09:31:12;;;;;;;2.40;2.20;;;;;;;;;;1730034;82;20898;-56
2021/05/27 09:33:42;;;;;;;2.87;2.05;;;;;;;;;;1732350;82;21002;-55
2021/05/27 09:36:12;;;;;;;3.12;2.12;;;;;;;;;;1725165;82;21143;-54
2021/05/27 09:38:44;;;;;;;2.55;2.15;;;;;;;;;;1724067;82;21014;-56
2021/05/27 09:41:23;;;;;;;2.62;2.42;;;;;;;;;;1704720;82;21581;-56
2021/05/27 09:43:52;;;;;;;3.72;2.65;;;;;;;;;;1671038;84;21018;-55
2021/05/27 09:46:20;;;;;;;3.15;2.33;;;;;;;;;;1679650;84;20936;-55
2021/05/27 09:48:46;;;;;;;4.92;2.90;;;;;;;;;;1731746;82;21079;-55
2021/05/27 09:51:26;;;;;;;2.62;2.20;;;;;;;;;;1729998;82;21022;-55
2021/05/27 09:53:53;;;;;;;6.00;2.42;;;;;;;;;;1706327;82;20946;-54
2021/05/27 09:56:31;;;;;;;3.40;2.60;;;;;;;;;;1731603;82;21135;-54
2021/05/27 09:58:57;;;;;;;2.45;2.25;;;;;;;;;;1731633;82;20940;-57
2021/05/27 10:01:23;;;;;;;4.05;2.47;;;;;;;;;;1732429;82;21691;-55
2021/05/27 10:03:50;;;;;;;2.95;2.62;;;;;;;;;;1731513;82;20962;-54
2021/05/27 10:06:16;;;;;;;2.83;2.40;;;;;;;;;;1735376;81;20968;-54
2021/05/27 10:08:55;;;;;;;4.92;3.12;;;;;;;;;;1732739;82;20919;-54
2021/05/27 10:11:23;;;;;;;3.08;2.45;;;;;;;;;;1731884;82;20939;-56
2021/05/27 10:13:50;;;;;;;3.00;2.37;;;;;;;;;;1732128;82;21626;-56
2021/05/27 10:16:18;;;;;;;4.17;2.27;;;;;;;;;;1731678;82;20990;-55
2021/05/27 10:18:45;;;;;;;2.33;2.12;;;;;;;;;;1732398;82;20998;-55
2021/05/27 10:21:12;;;;;;;2.40;2.20;;;;;;;;;;1702810;82;20979;-55
2021/05/27 10:23:38;;;;;;;3.35;2.08;;;;;;;;;;1732360;82;21014;-55
2021/05/27 10:26:04;;;;;;;2.50;2.22;;;;;;;;;;1719499;82;21660;-56
2021/05/27 10:28:31;;;;;;;2.42;2.22;;;;;;;;;;1723280;82;20978;-54
2021/05/27 10:30:57;;;;;;;2.10;2.00;;;;;;;;;;1732782;82;20891;-56
2021/05/27 10:33:24;;;;;;;3.60;2.33;;;;;;;;;;1732545;82;21568;-55
2021/05/27 10:35:57;;;;;;;2.67;2.37;;;;;;;;;;1732815;82;20951;-55
2021/05/27 10:38:49;;;;;;;4.15;2.37;;;;;;;;;;1732786;82;21161;-55
2021/05/27 10:41:21;;;;;;;4.12;2.37;;;;;;;;;;1731404;82;21138;-55
2021/05/27 10:44:04;;;;;;;3.75;2.70;;;;;;;;;;1726594;82;20942;-55
2021/05/27 10:46:32;;;;;;;6.22;2.80;;;;;;;;;;1732629;82;20931;-53
2021/05/27 10:48:58;;;;;;;6.20;3.02;;;;;;;;;;1729969;82;20997;-54
2021/05/27 10:51:42;;;;;;;4.10;2.10;;;;;;;;;;1728748;82;21603;-54
2021/05/27 10:54:06;;;;;;;3.98;2.70;;;;;;;;;;1735419;82;21002;-55
2021/05/27 10:56:38;;;;;;;2.90;2.70;;;;;;;;;;1702314;84;21052;-54
2021/05/27 10:59:06;;;;;;;2.60;2.40;;;;;;;;;;1672599;85;21610;-55
2021/05/27 11:01:37;;;;;;;4.03;2.67;;;;;;;;;;1702788;84;21497;-56
2021/05/27 11:04:08;;;;;;;3.65;2.80;;;;;;;;;;1739082;82;21806;-54
2021/05/27 11:06:39;;;;;;;4.45;2.70;;;;;;;;;;1716420;81;20965;-56
2021/05/27 11:09:15;;;;;;;2.95;2.42;;;;;;;;;;1718774;82;21487;-56
2021/05/27 11:11:45;;;;;;;4.65;3.10;;;;;;;;;;1722789;82;21033;-56
2021/05/27 11:14:26;;;;;;;2.52;2.12;;;;;;;;;;1721716;82;21014;-55
2021/05/27 11:17:07;;;;;;;4.60;2.90;;;;;;;;;;1726952;82;21484;-54
2021/05/27 11:25:14;;;;;;;4.97;3.58;;;;;;;;;;1730430;82;21022;-55
2021/05/27 11:27:51;;;;;;;4.65;4.25;;;;;;;;;;1736700;82;20982;-55
2021/05/27 11:30:36;;;;;;;4.50;4.10;;;;;;;;;;1737029;82;21009;-55
2021/05/27 11:33:04;;;;;;;4.78;3.15;;;;;;;;;;1673700;85;21008;-54
2021/05/27 11:35:40;;;;;;;5.67;3.05;;;;;;;;;;1699358;84;20989;-56
2021/05/27 11:38:08;;;;;;;3.12;2.55;;;;;;;;;;1672930;85;20925;-55
2021/05/27 11:40:37;;;;;;;2.92;2.40;;;;;;;;;;1702459;84;20961;-56
2021/05/27 11:43:06;;;;;;;5.12;2.60;;;;;;;;;;1704656;84;21058;-56
2021/05/27 11:45:50;;;;;;;3.60;3.30;;;;;;;;;;1707923;82;20989;-55
2021/05/27 11:50:49;;;;;;;3.58;2.62;;;;;;;;;;1737546;82;21010;-55
2021/05/27 11:53:19;;;;;;;5.30;2.70;;;;;;;;;;1732717;82;20957;-55
2021/05/27 11:55:54;;;;;;;3.00;2.70;;;;;;;;;;1721461;82;21110;-54
2021/05/27 11:58:35;;;;;;;3.35;2.87;;;;;;;;;;1736664;82;21107;-55
2021/05/27 12:01:19;;;;;;;3.30;1.90;;;;;;;;;;1673015;85;20997;-54
2021/05/27 12:04:07;;;;;;;2.50;1.65;;;;;;;;;;1674544;84;21012;-55
2021/05/27 12:06:52;;;;;;;2.70;1.40;;;;;;;;;;1674231;85;21020;-56
2021/05/27 12:09:23;;;;;;;1.98;1.30;;;;;;;;;;1715178;83;21672;-56
2021/05/27 12:11:51;;;;;;;5.92;1.32;;;;;;;;;;1714809;83;20948;-55
2021/05/27 12:14:17;;;;;;;2.52;1.60;;;;;;;;;;1714953;83;20947;-54
2021/05/27 12:16:45;;;;;;;4.30;1.72;;;;;;;;;;1714791;83;20971;-56
2021/05/27 12:19:13;;;;;;;1.70;1.60;;;;;;;;;;1715117;83;20896;-53
2021/05/27 12:21:51;;;;;;;3.87;1.87;;;;;;;;;;1728117;82;21089;-56
2021/05/27 12:24:25;;;;;;;5.17;1.90;;;;;;;;;;1735367;82;21030;-55
2021/05/27 12:26:52;;;;;;;2.42;1.67;;;;;;;;;;1735898;82;20974;-55
2021/05/27 12:29:18;;;;;;;2.08;1.70;;;;;;;;;;1736065;82;21002;-56
2021/05/27 12:31:45;;;;;;;2.17;1.20;;;;;;;;;;1735883;82;20875;-55
2021/05/27 12:34:14;;;;;;;3.17;2.25;;;;;;;;;;1736086;82;22153;-54
2021/05/27 12:37:00;;;;;;;3.22;1.95;;;;;;;;;;1735963;82;21055;-54
2021/05/27 12:39:35;;;;;;;2.20;1.37;;;;;;;;;;1681056;84;20894;-55
2021/05/27 12:42:03;;;;;;;1.57;1.22;;;;;;;;;;1725814;82;20947;-54
2021/05/27 12:44:40;;;;;;;3.75;1.40;;;;;;;;;;1735974;82;20982;-55
2021/05/27 12:47:19;;;;;;;4.42;1.30;;;;;;;;;;1735923;82;21072;-55
2021/05/27 12:49:48;;;;;;;2.77;1.70;;;;;;;;;;1735745;82;20955;-54
2021/05/27 12:52:44;;;;;;;3.90;1.65;;;;;;;;;;1734118;82;21045;-56
2021/05/27 12:55:10;;;;;;;2.87;1.52;;;;;;;;;;1734858;82;21026;-57
2021/05/27 12:57:51;;;;;;;3.27;1.50;;;;;;;;;;1731703;82;20990;-61
2021/05/27 13:00:19;;;;;;;2.12;1.37;;;;;;;;;;1735296;82;21112;-59
2021/05/27 13:02:47;;;;;;;1.82;1.32;;;;;;;;;;1735610;82;20907;-58
2021/05/27 13:05:16;;;;;;;2.95;1.40;;;;;;;;;;1697438;82;20984;-60
2021/05/27 13:07:56;;;;;;;4.87;1.60;;;;;;;;;;1730807;82;21065;-59
2021/05/27 13:10:35;;;;;;;1.40;1.30;;;;;;;;;;1735687;82;20923;-62
2021/05/27 13:13:04;;;;;;;2.00;1.25;;;;;;;;;;1735579;82;21081;-60
2021/05/27 13:15:43;;;;;;;1.35;0.88;;;;;;;;;;1735438;82;20958;-57
2021/05/27 13:18:10;;;;;;;1.62;1.22;;;;;;;;;;1735658;82;21034;-58
2021/05/27 13:20:58;;;;;;;1.50;1.07;;;;;;;;;;1735543;82;21528;-58
2021/05/27 13:23:32;;;;;;;2.52;1.20;;;;;;;;;;1735772;82;21484;-58
2021/05/27 13:26:19;;;;;;;1.40;1.07;;;;;;;;;;1734612;82;21758;-57
2021/05/27 13:28:48;;;;;;;2.60;1.42;;;;;;;;;;1735515;82;21619;-60
2021/05/27 13:31:14;;;;;;;3.58;1.40;;;;;;;;;;1733540;82;20851;-61
2021/05/27 13:33:40;;;;;;;1.15;1.02;;;;;;;;;;1734704;82;21076;-57
2021/05/27 13:36:06;;;;;;;6.50;1.20;;;;;;;;;;1708262;82;21506;-58
2021/05/27 13:38:33;;;;;;;1.12;0.95;;;;;;;;;;1708139;82;21066;-57
2021/05/27 13:41:04;;;;;;;2.17;1.20;;;;;;;;;;1710129;82;20944;-60
2021/05/27 13:43:36;;;;;;;2.95;1.12;;;;;;;;;;1708389;82;21589;-58
2021/05/27 13:46:05;;;;;;;3.27;1.35;;;;;;;;;;1710142;82;20964;-62
2021/05/27 13:48:32;;;;;;;1.70;1.20;;;;;;;;;;1727612;82;20962;-59
2021/05/27 13:50:58;;;;;;;2.08;1.30;;;;;;;;;;1730002;82;21822;-58
2021/05/27 13:53:25;;;;;;;2.35;1.45;;;;;;;;;;1735809;82;20967;-59
2021/05/27 13:55:54;;;;;;;2.77;1.10;;;;;;;;;;1735893;82;20991;-64
2021/05/27 13:58:20;;;;;;;2.77;1.00;;;;;;;;;;1735694;82;21571;-58
2021/05/27 14:00:46;;;;;;;1.50;1.00;;;;;;;;;;1736014;82;20894;-57
2021/05/27 14:03:12;;;;;;;4.28;1.20;;;;;;;;;;1735986;82;21090;-58
2021/05/27 14:05:38;;;;;;;3.80;1.20;;;;;;;;;;1735808;82;21579;-58
2021/05/27 14:08:06;;;;;;;2.50;1.02;;;;;;;;;;1735932;82;20919;-63
2021/05/27 14:10:33;;;;;;;1.92;1.02;;;;;;;;;;1735808;82;20938;-58
2021/05/27 14:13:02;;;;;;;4.58;0.90;;;;;;;;;;1736018;82;20966;-57
2021/05/27 14:15:28;;;;;;;3.40;1.05;;;;;;;;;;1735971;82;20895;-61
2021/05/27 14:17:55;;;;;;;0.90;0.68;;;;;;;;;;1735933;82;20998;-59
2021/05/27 14:20:23;;;;;;;1.75;0.90;;;;;;;;;;1736090;82;21632;-59
2021/05/27 14:22:49;;;;;;;3.83;1.10;;;;;;;;;;1716588;82;20990;-59
2021/05/27 14:25:16;;;;;;;2.10;1.00;;;;;;;;;;1714947;83;20971;-62
2021/05/27 14:27:42;;;;;;;1.47;0.93;;;;;;;;;;1704965;83;22240;-57
2021/05/27 14:30:09;;;;;;;0.95;0.90;;;;;;;;;;1704637;83;20857;-61
2021/05/27 14:32:36;;;;;;;1.62;0.80;;;;;;;;;;1693145;83;21528;-61
2021/05/27 14:35:02;;;;;;;3.70;1.25;;;;;;;;;;1693528;83;21021;-58
2021/05/27 14:37:29;;;;;;;2.50;0.72;;;;;;;;;;1712545;83;20991;-56
2021/05/27 14:39:55;;;;;;;2.00;1.30;;;;;;;;;;1714925;83;21727;-57
2021/05/27 14:42:23;;;;;;;0.95;0.90;;;;;;;;;;1714780;83;21480;-56
2021/05/27 14:44:49;;;;;;;4.28;0.82;;;;;;;;;;1713933;83;21002;-57
2021/05/27 14:47:16;;;;;;;1.15;0.78;;;;;;;;;;1714360;83;21556;-58
2021/05/27 14:49:42;;;;;;;1.57;0.75;;;;;;;;;;1705134;83;21543;-57
2021/05/27 14:52:08;;;;;;;3.20;0.90;;;;;;;;;;1697785;83;21101;-57
2021/05/27 14:54:36;;;;;;;3.08;0.95;;;;;;;;;;1712630;83;20986;-57
2021/05/27 14:57:03;;;;;;;7.42;1.22;;;;;;;;;;1695642;83;21018;-57
2021/05/27 14:59:29;;;;;;;2.27;0.90;;;;;;;;;;1678452;83;21132;-56
2021/05/27 15:01:55;;;;;;;3.42;0.80;;;;;;;;;;1714906;82;20991;-55
2021/05/27 15:04:21;;;;;;;2.37;1.17;;;;;;;;;;1715001;82;21136;-55
2021/05/27 15:06:48;;;;;;;4.67;2.17;;;;;;;;;;1714559;82;21034;-56
2021/05/27 15:09:16;;;;;;;2.77;1.45;;;;;;;;;;1714842;82;20995;-55